Time;durP1;ratioP1;P1;durP2;ratioP2;P2;SDS_P1;SDS_P2;PMS_P1;PMS_P2;Temp;Humidity;BMP_temperature;BMP_pressure;BME280_temperature;BME280_humidity;BME280_pressure;Samples;Min_cycle;Max_cycle;Signal;HPM_P1;HPM_P2
2021/10/02 00:45:31;;;;;;;8.05;6.38;;;;;;;11.65;56.97;101065.69;5000515;28;20411;-65
2021/10/02 00:47:59;;;;;;;11.45;6.32;;;;;;;11.70;56.80;101068.13;5000837;28;20042;-65
2021/10/02 00:50:25;;;;;;;13.20;6.93;;;;;;;11.90;56.55;101069.94;5001684;28;20030;-68
2021/10/02 00:52:51;;;;;;;8.88;6.47;;;;;;;12.10;56.12;101069.09;5001964;28;20033;-64
2021/10/02 00:55:16;;;;;;;10.05;6.97;;;;;;;11.55;56.96;101058.28;4998445;28;20104;-66
2021/10/02 00:57:42;;;;;;;13.65;7.95;;;;;;;11.56;57.65;101062.63;5002010;28;20117;-65
2021/10/02 01:00:10;;;;;;;12.27;7.63;;;;;;;11.51;57.50;101059.31;5001041;28;20044;-67
2021/10/02 01:02:48;;;;;;;12.93;8.05;;;;;;;11.77;56.82;101066.09;5000216;28;20495;-66
2021/10/02 01:05:32;;;;;;;8.45;6.75;;;;;;;11.90;56.32;101061.25;5000099;28;20036;-65
2021/10/02 01:08:15;;;;;;;9.63;7.05;;;;;;;11.44;57.83;101049.13;4998301;28;20214;-66
2021/10/02 01:10:43;;;;;;;14.90;6.85;;;;;;;11.75;57.09;101042.59;5002606;28;20192;-66
2021/10/02 01:13:34;;;;;;;14.60;7.63;;;;;;;11.92;56.61;101039.28;5000196;28;20045;-66
2021/10/02 01:16:13;;;;;;;11.63;7.03;;;;;;;12.13;55.75;101047.97;5015464;28;20038;-66
2021/10/02 01:18:46;;;;;;;13.05;7.70;;;;;;;12.17;55.97;101041.69;5002895;28;20398;-66
2021/10/02 01:21:26;;;;;;;13.82;7.88;;;;;;;11.96;56.00;101043.50;5000562;28;20035;-66
2021/10/02 01:24:32;;;;;;;10.07;6.75;;;;;;;12.04;55.91;101037.91;5002086;28;20466;-66
2021/10/02 01:27:19;;;;;;;12.15;7.38;;;;;;;11.83;56.63;101039.69;4942161;28;20043;-67
2021/10/02 01:29:46;;;;;;;11.50;7.50;;;;;;;11.84;56.42;101038.75;4942709;28;20069;-63
2021/10/02 01:32:21;;;;;;;10.45;7.97;;;;;;;11.61;57.40;101043.19;4982380;28;20049;-63
2021/10/02 01:47:09;;;;;;;14.07;7.50;;;;;;;12.04;55.71;101040.53;5004724;28;20061;-63
2021/10/02 01:48:36;;;;;;;9.65;6.72;;;;;;;12.22;55.23;101031.88;4998182;28;20061;-66
2021/10/02 01:51:03;;;;;;;8.23;6.03;;;;;;;12.06;55.62;101015.13;5001177;28;20064;-66
2021/10/02 01:53:33;;;;;;;10.63;7.00;;;;;;;12.14;55.49;101028.75;5002150;28;20141;-65
2021/10/02 01:56:04;;;;;;;11.05;7.35;;;;;;;11.84;55.90;101031.78;5003710;28;20091;-65
2021/10/02 01:58:30;;;;;;;13.80;7.93;;;;;;;11.64;57.03;101036.94;5002661;28;20503;-65
2021/10/02 02:00:56;;;;;;;11.95;7.03;;;;;;;11.95;56.01;101035.69;5003831;28;20121;-65
2021/10/02 02:03:23;;;;;;;12.88;6.18;;;;;;;12.00;55.73;101033.72;5003814;28;20459;-65
2021/10/02 02:05:49;;;;;;;10.05;7.32;;;;;;;12.04;56.01;101030.03;5005273;28;20113;-67
2021/10/02 02:08:20;;;;;;;13.63;7.55;;;;;;;11.98;56.07;101039.03;5000618;28;20045;-64
2021/10/02 02:10:46;;;;;;;13.68;7.38;;;;;;;12.12;55.66;101046.28;5003192;28;20172;-64
2021/10/02 02:13:15;;;;;;;15.27;7.47;;;;;;;12.21;55.38;101039.81;5003335;28;20030;-64
2021/10/02 02:15:43;;;;;;;10.85;7.45;;;;;;;11.44;57.17;101038.66;5018271;28;20034;-65
2021/10/02 02:18:12;;;;;;;8.30;6.78;;;;;;;11.93;55.94;101040.13;5001972;28;20040;-65
2021/10/02 02:20:53;;;;;;;14.07;7.85;;;;;;;11.66;56.66;101032.50;5001196;28;20033;-66
2021/10/02 02:23:19;;;;;;;11.40;6.77;;;;;;;12.02;55.92;101031.88;5003011;28;20037;-65
2021/10/02 02:25:46;;;;;;;15.07;7.80;;;;;;;11.96;55.92;101040.03;5002215;28;20281;-65
2021/10/02 02:28:12;;;;;;;12.85;8.18;;;;;;;12.25;55.25;101034.34;5004033;28;20041;-65
2021/10/02 02:30:37;;;;;;;11.00;7.53;;;;;;;12.32;55.16;101036.72;5004319;28;20041;-65
2021/10/02 02:33:04;;;;;;;12.65;8.65;;;;;;;11.86;55.92;101027.31;5003636;28;20041;-64
2021/10/02 02:35:30;;;;;;;12.43;8.05;;;;;;;11.88;56.47;101020.22;5002128;28;20041;-65
2021/10/02 02:37:56;;;;;;;12.38;7.82;;;;;;;12.12;55.52;101017.47;5002111;28;20024;-66
2021/10/02 02:40:21;;;;;;;12.73;7.70;;;;;;;11.98;55.49;101006.75;5001029;28;20111;-64
2021/10/02 02:42:47;;;;;;;15.43;8.30;;;;;;;11.66;56.64;101001.97;5002547;28;20042;-64
2021/10/02 02:45:15;;;;;;;13.23;8.18;;;;;;;12.04;55.50;101011.72;5000168;28;20041;-63
2021/10/02 02:47:47;;;;;;;16.02;7.50;;;;;;;11.78;56.26;101000.63;5002273;28;20590;-65
2021/10/02 02:50:21;;;;;;;16.75;8.32;;;;;;;11.85;56.05;101007.28;5001873;28;20058;-65
2021/10/02 02:52:58;;;;;;;11.07;8.20;;;;;;;12.03;55.81;101010.03;5004317;28;20073;-65
2021/10/02 02:55:27;;;;;;;9.70;7.55;;;;;;;12.26;54.93;101001.97;5003485;28;20049;-65
2021/10/02 02:57:57;;;;;;;12.65;7.68;;;;;;;12.28;55.04;101001.91;5003566;28;20402;-64
2021/10/02 03:00:24;;;;;;;14.10;8.88;;;;;;;12.03;55.69;100994.31;5003132;28;20042;-65
2021/10/02 03:02:55;;;;;;;11.27;7.90;;;;;;;12.24;54.82;100987.25;5002812;28;20068;-65
2021/10/02 03:05:23;;;;;;;16.30;7.95;;;;;;;12.25;55.07;100983.72;5002347;28;20387;-67
2021/10/02 03:07:56;;;;;;;10.63;7.43;;;;;;;12.29;54.72;100983.50;5003666;28;20046;-66
2021/10/02 03:10:23;;;;;;;11.15;8.65;;;;;;;12.30;54.72;100979.09;5003617;28;20053;-67
2021/10/02 03:12:53;;;;;;;13.60;7.80;;;;;;;11.85;56.14;100981.09;5003069;28;20483;-67
2021/10/02 03:15:21;;;;;;;13.90;7.85;;;;;;;12.18;55.18;100972.66;5016528;28;20487;-68
2021/10/02 03:17:49;;;;;;;11.85;7.68;;;;;;;12.22;54.98;100969.00;5001239;28;20242;-68
2021/10/02 03:20:16;;;;;;;11.43;7.28;;;;;;;12.26;54.78;100985.41;5001795;28;20059;-69
2021/10/02 03:22:43;;;;;;;12.32;8.57;;;;;;;12.16;55.27;100992.00;5004214;28;20108;-64
2021/10/02 03:25:09;;;;;;;12.13;8.15;;;;;;;12.16;55.56;101005.94;5002904;28;20423;-65
2021/10/02 03:27:35;;;;;;;12.80;9.75;;;;;;;12.03;55.70;101003.00;5001303;28;20096;-65
2021/10/02 03:30:01;;;;;;;14.23;9.18;;;;;;;12.13;55.63;101010.47;5003204;28;20112;-66
2021/10/02 03:32:27;;;;;;;13.02;7.70;;;;;;;12.17;55.49;101009.41;5001304;28;20038;-65
2021/10/02 03:34:53;;;;;;;12.63;8.63;;;;;;;11.75;56.97;101016.41;5001882;28;20038;-66
2021/10/02 03:37:19;;;;;;;15.60;8.80;;;;;;;12.03;56.08;101016.09;5000565;28;20131;-66
2021/10/02 03:39:45;;;;;;;10.32;7.25;;;;;;;12.03;56.12;101017.88;5004142;28;20402;-66
2021/10/02 03:42:18;;;;;;;16.55;7.32;;;;;;;12.13;55.83;101013.91;5001807;28;20030;-66
2021/10/02 03:44:46;;;;;;;14.25;9.40;;;;;;;11.98;56.21;101022.47;5002252;28;20033;-65
2021/10/02 03:47:13;;;;;;;21.20;8.23;;;;;;;12.14;55.70;101026.13;5000643;28;20088;-66
2021/10/02 03:49:39;;;;;;;14.40;8.07;;;;;;;11.90;56.43;101022.78;5001887;28;20455;-65
2021/10/02 03:52:06;;;;;;;10.82;8.38;;;;;;;11.76;57.04;101025.97;5002022;28;20041;-64
2021/10/02 03:54:32;;;;;;;11.95;7.55;;;;;;;12.11;56.08;101018.41;5001796;28;20064;-64
2021/10/02 03:56:57;;;;;;;13.98;8.65;;;;;;;12.25;55.63;101009.91;5000497;28;20562;-67
2021/10/02 03:59:23;;;;;;;20.52;9.02;;;;;;;12.35;55.11;101011.19;5000562;28;20109;-65
2021/10/02 04:01:49;;;;;;;12.27;9.07;;;;;;;12.16;55.89;101019.03;5000870;28;20422;-66
2021/10/02 04:04:14;;;;;;;11.68;8.98;;;;;;;11.97;55.94;101005.03;5001069;28;20124;-65
2021/10/02 04:06:40;;;;;;;16.58;9.38;;;;;;;12.22;55.58;100999.56;5001632;28;20038;-65
2021/10/02 04:09:05;;;;;;;14.30;9.07;;;;;;;12.29;55.10;101001.84;5004675;28;20068;-66
2021/10/02 04:11:32;;;;;;;12.45;9.15;;;;;;;12.19;55.60;101005.78;5001233;28;20045;-67
2021/10/02 04:14:02;;;;;;;15.27;8.85;;;;;;;12.27;55.40;100993.19;5003138;28;20683;-65
2021/10/02 04:16:29;;;;;;;14.77;9.55;;;;;;;12.23;55.32;101006.50;5000614;28;20534;-65
2021/10/02 04:18:56;;;;;;;16.73;10.25;;;;;;;11.88;56.56;101012.38;5002525;28;20045;-69
2021/10/02 04:21:21;;;;;;;14.70;10.15;;;;;;;12.20;55.68;101004.88;5002589;28;20153;-65
2021/10/02 04:23:47;;;;;;;17.48;9.77;;;;;;;12.08;56.03;101008.03;5001945;28;20049;-66
2021/10/02 04:26:12;;;;;;;13.98;9.50;;;;;;;12.18;55.75;101011.09;4998902;28;20040;-64
2021/10/02 04:28:38;;;;;;;10.68;8.50;;;;;;;12.25;55.33;101008.16;5003152;28;20045;-68
2021/10/02 04:31:04;;;;;;;16.15;9.75;;;;;;;12.28;55.06;101008.00;5002625;28;20033;-66
2021/10/02 04:33:30;;;;;;;13.32;9.45;;;;;;;12.40;55.04;101008.34;5017637;28;20133;-67
2021/10/02 04:35:56;;;;;;;19.27;10.68;;;;;;;11.94;56.29;101016.50;5001564;28;20032;-65
2021/10/02 04:38:21;;;;;;;17.92;8.77;;;;;;;11.99;56.38;101018.94;5016256;28;20034;-64
2021/10/02 04:40:47;;;;;;;14.57;9.35;;;;;;;12.05;55.93;101019.50;5002630;28;20101;-65
2021/10/02 04:43:12;;;;;;;15.43;10.75;;;;;;;12.04;56.16;101020.44;5000826;28;20034;-65
2021/10/02 04:45:38;;;;;;;16.92;10.10;;;;;;;12.24;55.33;101019.53;5000282;28;20026;-65
2021/10/02 04:48:04;;;;;;;16.00;9.85;;;;;;;12.24;55.22;101011.66;5000150;28;20042;-64
2021/10/02 04:50:32;;;;;;;14.15;9.40;;;;;;;12.33;55.03;101004.31;5000968;28;20040;-65
2021/10/02 04:52:58;;;;;;;11.90;9.43;;;;;;;12.39;54.92;101011.91;4999957;28;20045;-64
2021/10/02 04:55:25;;;;;;;13.93;10.40;;;;;;;12.25;55.48;101009.91;4998487;28;20411;-65
2021/10/02 04:57:50;;;;;;;14.02;10.40;;;;;;;12.32;55.10;101013.13;4999084;28;20121;-65
2021/10/02 05:00:16;;;;;;;18.35;9.85;;;;;;;11.69;56.67;101021.94;4999334;28;20251;-65
2021/10/02 05:02:42;;;;;;;15.23;10.25;;;;;;;12.01;56.07;101017.09;5001203;28;20133;-65
2021/10/02 05:05:07;;;;;;;13.65;9.82;;;;;;;12.16;55.27;101026.06;5001664;28;20080;-64
2021/10/02 05:07:33;;;;;;;12.07;9.45;;;;;;;11.86;56.06;101019.44;5004791;28;20037;-65
2021/10/02 05:09:58;;;;;;;16.75;10.30;;;;;;;11.73;56.30;101012.16;5004483;28;20041;-65
2021/10/02 05:12:24;;;;;;;19.60;9.10;;;;;;;11.98;55.73;101012.00;5001436;28;20041;-64
2021/10/02 05:14:49;;;;;;;18.58;10.30;;;;;;;12.06;55.28;101012.50;5003175;28;20044;-64
2021/10/02 05:17:15;;;;;;;14.25;9.75;;;;;;;12.08;55.09;101014.13;5003676;28;20041;-65
2021/10/02 05:19:42;;;;;;;13.13;8.68;;;;;;;12.08;54.86;101014.13;5002843;28;20045;-64
2021/10/02 05:22:08;;;;;;;12.90;9.73;;;;;;;11.98;55.13;101019.88;4993690;28;20046;-63
2021/10/02 05:24:38;;;;;;;14.68;9.73;;;;;;;11.68;56.06;101018.44;5003181;28;20038;-64
2021/10/02 05:27:06;;;;;;;13.77;9.52;;;;;;;11.76;55.67;101018.13;5005118;28;20034;-64
2021/10/02 05:29:34;;;;;;;16.80;9.82;;;;;;;11.87;55.88;101022.94;5003986;28;20065;-64
2021/10/02 05:31:59;;;;;;;15.88;9.23;;;;;;;11.81;56.17;101016.19;5004261;28;20041;-63
2021/10/02 05:34:25;;;;;;;17.55;10.20;;;;;;;11.90;55.67;101016.72;5003646;28;20034;-64
2021/10/02 05:36:50;;;;;;;16.75;10.13;;;;;;;11.93;55.77;101024.44;5004642;28;20062;-65
2021/10/02 05:39:16;;;;;;;19.58;10.30;;;;;;;11.95;55.28;101022.59;5002889;28;20061;-64
2021/10/02 05:41:41;;;;;;;16.70;9.88;;;;;;;11.98;55.34;101023.31;5003627;28;20098;-65
2021/10/02 05:44:07;;;;;;;12.70;9.07;;;;;;;11.98;55.53;101041.66;5003321;28;20060;-66
2021/10/02 05:46:32;;;;;;;16.23;10.57;;;;;;;11.78;55.90;101037.28;5004880;28;20375;-69
2021/10/02 05:48:58;;;;;;;16.40;10.65;;;;;;;11.87;56.27;101046.50;5004826;28;20072;-67
2021/10/02 05:51:24;;;;;;;14.02;10.60;;;;;;;11.85;56.10;101043.94;5002211;28;20308;-66
2021/10/02 05:53:50;;;;;;;13.85;9.82;;;;;;;11.95;55.90;101038.31;5004948;28;20414;-66
2021/10/02 05:56:15;;;;;;;16.70;10.60;;;;;;;11.62;56.57;101041.41;5001729;28;20065;-64
2021/10/02 05:58:41;;;;;;;16.70;10.20;;;;;;;11.91;56.08;101036.72;5003189;28;20049;-66
2021/10/02 06:01:06;;;;;;;13.60;9.10;;;;;;;12.01;55.58;101033.66;5002590;28;20045;-64
2021/10/02 06:03:32;;;;;;;14.02;9.70;;;;;;;12.02;55.96;101042.34;5002651;28;20045;-66
2021/10/02 06:06:00;;;;;;;15.25;9.85;;;;;;;12.05;55.78;101037.84;5003889;28;20483;-66
2021/10/02 06:08:27;;;;;;;16.02;10.23;;;;;;;11.99;55.82;101039.88;5004492;28;20037;-66
2021/10/02 06:10:53;;;;;;;18.17;9.63;;;;;;;12.16;55.56;101032.16;5001838;28;20408;-66
2021/10/02 06:13:19;;;;;;;18.38;10.52;;;;;;;12.25;55.81;101031.72;5001402;28;20164;-65
2021/10/02 06:15:44;;;;;;;15.18;9.90;;;;;;;12.35;55.42;101032.16;5003688;28;20030;-66
2021/10/02 06:18:11;;;;;;;16.67;10.05;;;;;;;12.53;54.96;101029.63;5002389;28;20565;-67
2021/10/02 06:20:37;;;;;;;17.55;10.60;;;;;;;12.29;55.31;101049.03;5003191;28;20466;-68
2021/10/02 06:23:04;;;;;;;17.50;9.57;;;;;;;12.61;55.02;101044.09;5004057;28;20123;-65
2021/10/02 06:25:33;;;;;;;12.43;9.07;;;;;;;12.65;54.62;101037.78;5000457;28;20479;-66
2021/10/02 06:27:59;;;;;;;19.75;11.15;;;;;;;12.74;54.45;101039.16;5003401;28;20049;-66
2021/10/02 06:30:25;;;;;;;15.73;10.32;;;;;;;12.59;54.62;101035.44;5001707;28;20034;-63
2021/10/02 06:32:50;;;;;;;23.63;12.70;;;;;;;12.84;54.21;101039.56;5004145;28;20037;-66
2021/10/02 06:35:16;;;;;;;14.55;9.80;;;;;;;12.80;54.50;101032.78;5001634;28;20065;-66
2021/10/02 06:37:44;;;;;;;15.88;11.25;;;;;;;13.03;53.71;101022.06;5001475;28;20038;-66
2021/10/02 06:40:11;;;;;;;17.80;10.07;;;;;;;13.28;53.33;101023.47;5002250;28;20041;-66
2021/10/02 06:42:37;;;;;;;14.57;9.30;;;;;;;13.49;53.50;101026.81;5003799;28;20097;-66
2021/10/02 06:45:06;;;;;;;16.25;10.20;;;;;;;13.93;51.85;101024.59;5002292;28;20125;-66
2021/10/02 06:47:32;;;;;;;15.55;9.90;;;;;;;14.25;50.58;101024.66;5000510;28;20116;-64
2021/10/02 06:49:58;;;;;;;15.18;9.60;;;;;;;14.47;50.49;101034.06;5002662;28;20073;-66
2021/10/02 06:52:27;;;;;;;16.23;8.95;;;;;;;15.01;48.81;101031.97;5000841;28;20041;-65
2021/10/02 06:54:54;;;;;;;11.80;8.32;;;;;;;14.22;49.81;101042.41;5002902;28;20500;-66
2021/10/02 06:57:20;;;;;;;15.05;8.85;;;;;;;14.75;49.93;101039.53;5002259;28;20499;-66
2021/10/02 06:59:46;;;;;;;15.68;8.98;;;;;;;14.85;48.20;101036.41;5000935;28;20524;-65
2021/10/02 07:02:12;;;;;;;16.33;8.50;;;;;;;15.08;47.68;101024.56;5002786;28;20054;-67
2021/10/02 07:04:37;;;;;;;14.98;8.82;;;;;;;14.59;48.34;101020.28;5002578;28;20061;-70
2021/10/02 07:07:04;;;;;;;12.48;9.15;;;;;;;14.27;48.98;101025.44;5002721;28;20105;-69
2021/10/02 07:09:30;;;;;;;14.20;8.35;;;;;;;13.94;49.67;101028.94;4999414;28;20064;-68
2021/10/02 07:11:55;;;;;;;10.40;8.73;;;;;;;13.87;50.86;101035.41;5003144;28;20644;-66
2021/10/02 07:14:21;;;;;;;11.32;9.18;;;;;;;13.67;50.82;101032.94;4999527;28;20050;-65
2021/10/02 07:16:47;;;;;;;14.77;8.82;;;;;;;13.35;52.15;101035.38;5002338;28;20068;-64
2021/10/02 07:19:13;;;;;;;14.20;9.13;;;;;;;13.69;52.00;101033.72;4990042;28;20115;-65
2021/10/02 07:21:38;;;;;;;16.90;9.77;;;;;;;13.22;52.53;101029.03;5003541;28;20026;-64
2021/10/02 07:24:04;;;;;;;16.77;9.10;;;;;;;13.63;52.22;101028.78;5017641;28;20522;-64
2021/10/02 07:26:30;;;;;;;14.88;9.70;;;;;;;13.89;51.61;101037.97;4999451;28;20041;-64
2021/10/02 07:28:56;;;;;;;19.60;9.85;;;;;;;13.28;52.40;101039.25;4998653;28;20057;-65
2021/10/02 07:31:21;;;;;;;18.88;9.43;;;;;;;13.33;51.60;101038.06;5002552;28;20112;-64
2021/10/02 07:33:48;;;;;;;17.35;10.20;;;;;;;13.69;50.90;101028.47;5003731;28;20088;-65
2021/10/02 07:36:16;;;;;;;13.80;9.23;;;;;;;13.70;50.79;101027.56;5001203;28;20084;-65
2021/10/02 07:38:42;;;;;;;13.43;8.52;;;;;;;13.74;51.13;101036.94;5002927;28;20041;-65
2021/10/02 07:41:10;;;;;;;13.43;9.25;;;;;;;13.56;52.06;101048.38;5002272;28;20033;-65
2021/10/02 07:43:36;;;;;;;14.18;9.02;;;;;;;13.47;51.93;101050.53;5004638;28;20056;-65
2021/10/02 07:46:02;;;;;;;14.02;10.07;;;;;;;14.00;51.32;101027.75;5000856;28;20090;-64
2021/10/02 07:48:28;;;;;;;13.70;9.80;;;;;;;14.64;49.82;101023.50;5000009;28;21335;-65
2021/10/02 07:50:54;;;;;;;11.00;8.35;;;;;;;15.38;47.98;101024.63;4999419;28;20037;-65
2021/10/02 07:53:22;;;;;;;15.63;8.55;;;;;;;15.71;46.66;101020.97;5000360;28;20034;-65
2021/10/02 07:55:49;;;;;;;10.23;7.72;;;;;;;15.45;46.65;101031.25;4999481;28;20133;-65
2021/10/02 07:58:15;;;;;;;12.52;8.95;;;;;;;14.82;47.92;101036.56;4999646;28;20052;-65
2021/10/02 08:00:41;;;;;;;15.95;9.20;;;;;;;14.21;49.84;101027.53;5001663;28;20495;-63
2021/10/02 08:03:06;;;;;;;14.85;9.77;;;;;;;14.41;49.36;101026.50;5005206;28;20022;-65
2021/10/02 08:05:32;;;;;;;12.68;9.70;;;;;;;14.26;49.60;101026.38;5006257;28;20645;-64
2021/10/02 08:07:59;;;;;;;19.25;10.60;;;;;;;14.39;49.75;101029.22;5000162;28;20033;-63
2021/10/02 08:10:26;;;;;;;13.80;9.88;;;;;;;15.32;48.57;101024.97;5009276;28;20033;-64
2021/10/02 08:12:52;;;;;;;18.35;9.25;;;;;;;15.56;46.83;101018.28;5007231;28;20038;-64
2021/10/02 08:15:21;;;;;;;19.65;12.13;;;;;;;16.22;45.71;101021.44;5008925;28;20048;-64
2021/10/02 08:17:48;;;;;;;11.35;9.10;;;;;;;16.17;45.15;101021.69;5009144;28;20025;-65
2021/10/02 08:20:17;;;;;;;11.90;8.88;;;;;;;15.66;45.79;101021.25;5006790;28;20049;-64
2021/10/02 08:22:48;;;;;;;15.00;9.60;;;;;;;14.96;47.67;101019.06;5008598;28;20042;-64
2021/10/02 08:25:16;;;;;;;12.25;9.38;;;;;;;14.90;48.14;101018.56;5007762;28;20106;-64
2021/10/02 08:27:43;;;;;;;11.45;9.35;;;;;;;14.55;48.74;101030.09;5000535;28;20046;-64
2021/10/02 08:30:11;;;;;;;13.18;8.98;;;;;;;14.33;48.89;101017.22;4994121;28;20048;-65
2021/10/02 08:32:37;;;;;;;13.60;9.07;;;;;;;14.09;49.69;101010.66;4988802;28;20074;-64
2021/10/02 08:35:05;;;;;;;15.40;10.55;;;;;;;13.92;50.62;101009.75;4999492;28;21049;-66
2021/10/02 08:37:30;;;;;;;14.48;10.63;;;;;;;13.93;51.13;101006.19;5001970;28;20038;-66
2021/10/02 08:39:56;;;;;;;15.90;10.15;;;;;;;14.08;50.25;100993.19;5001448;28;20514;-66
2021/10/02 08:42:24;;;;;;;16.85;10.30;;;;;;;14.05;50.58;100993.34;5001149;28;20030;-63
2021/10/02 08:44:51;;;;;;;16.60;9.05;;;;;;;14.29;50.50;100984.13;5002295;28;20042;-66
2021/10/02 08:47:20;;;;;;;15.95;9.80;;;;;;;14.09;50.60;100992.25;5001772;28;20069;-65
2021/10/02 08:49:47;;;;;;;17.75;9.70;;;;;;;14.22;49.96;100980.16;5005402;28;20122;-64
2021/10/02 08:52:14;;;;;;;16.38;9.23;;;;;;;14.40;49.98;100972.19;4997971;28;20038;-64
2021/10/02 08:54:43;;;;;;;13.90;8.68;;;;;;;14.84;48.60;100972.41;4998948;28;20434;-65
2021/10/02 08:57:10;;;;;;;13.52;9.07;;;;;;;14.46;49.64;100974.53;5003652;28;20102;-63
2021/10/02 08:59:38;;;;;;;16.25;10.10;;;;;;;14.25;50.32;100972.09;5002092;28;20053;-63
2021/10/02 09:02:07;;;;;;;12.20;8.75;;;;;;;14.20;50.26;100971.50;5002010;28;20041;-65
2021/10/02 09:04:33;;;;;;;25.77;9.85;;;;;;;14.86;49.81;100973.16;5002085;28;20072;-64
2021/10/02 09:06:58;;;;;;;12.30;8.02;;;;;;;15.35;47.18;100964.25;5001874;28;20553;-65
2021/10/02 09:09:24;;;;;;;12.32;8.30;;;;;;;14.70;48.23;100970.56;5002180;28;20034;-66
2021/10/02 09:11:51;;;;;;;13.27;9.10;;;;;;;15.34;48.03;100973.06;5008259;28;20470;-64
2021/10/02 09:14:18;;;;;;;14.93;8.27;;;;;;;15.49;47.72;100977.44;5009922;28;20059;-63
2021/10/02 09:16:44;;;;;;;9.93;7.45;;;;;;;15.29;47.00;100967.25;5008853;28;21010;-65
2021/10/02 09:19:10;;;;;;;14.80;7.80;;;;;;;15.78;46.82;100977.50;5009657;28;20069;-65
2021/10/02 09:21:58;;;;;;;10.60;7.22;;;;;;;16.17;44.63;100968.09;5011691;28;20453;-64
2021/10/02 09:24:30;;;;;;;11.45;6.75;;;;;;;16.85;43.93;100961.22;5026975;28;20038;-65
2021/10/02 09:26:56;;;;;;;10.85;6.38;;;;;;;16.92;42.77;100967.78;5011838;28;20033;-65
2021/10/02 09:29:40;;;;;;;13.68;7.25;;;;;;;17.14;41.55;100968.06;5009256;28;20811;-66
2021/10/02 09:32:11;;;;;;;10.13;6.20;;;;;;;17.82;41.25;100963.50;5018585;28;20045;-65
2021/10/02 09:35:09;;;;;;;10.45;5.90;;;;;;;17.51;41.30;100962.97;5004754;28;20068;-64
2021/10/02 09:37:38;;;;;;;11.90;5.47;;;;;;;16.94;42.02;100960.59;4984437;28;20058;-65
2021/10/02 09:40:17;;;;;;;14.90;6.90;;;;;;;15.58;45.49;100963.72;5003569;28;22275;-65
2021/10/02 09:42:45;;;;;;;9.63;6.75;;;;;;;15.83;44.83;100971.94;5003204;28;20614;-63
2021/10/02 09:45:15;;;;;;;13.15;5.82;;;;;;;15.68;45.23;100964.00;5003389;28;20095;-66
2021/10/02 09:47:41;;;;;;;11.38;5.57;;;;;;;15.40;45.53;100953.44;5004345;28;20030;-66
2021/10/02 09:50:16;;;;;;;11.00;6.28;;;;;;;15.11;46.29;100948.91;5003229;28;20040;-67
2021/10/02 09:52:45;;;;;;;10.60;6.07;;;;;;;14.13;47.46;100957.00;5004071;28;20050;-66
2021/10/02 09:55:26;;;;;;;10.27;5.93;;;;;;;14.66;46.52;100944.50;5002558;28;20074;-66
2021/10/02 09:57:57;;;;;;;8.45;6.07;;;;;;;14.63;46.80;100953.38;5004667;28;20049;-67
2021/10/02 10:00:27;;;;;;;12.27;6.53;;;;;;;15.55;45.90;100941.97;5016179;28;20036;-66
2021/10/02 10:02:53;;;;;;;11.20;6.03;;;;;;;15.58;44.60;100937.38;5018562;28;20726;-65
2021/10/02 10:05:25;;;;;;;10.30;5.35;;;;;;;16.36;43.78;100929.09;5003562;28;20025;-65
2021/10/02 10:07:53;;;;;;;6.85;5.05;;;;;;;16.34;42.75;100927.50;4995920;28;20041;-65
2021/10/02 10:10:19;;;;;;;8.45;4.45;;;;;;;16.85;41.74;100926.91;4999759;28;20113;-65
2021/10/02 10:12:45;;;;;;;10.05;5.35;;;;;;;17.15;40.42;100922.19;5005482;28;20045;-66
2021/10/02 10:15:30;;;;;;;6.10;4.63;;;;;;;16.69;41.32;100927.88;5000088;28;20532;-66
2021/10/02 10:17:56;;;;;;;9.57;4.65;;;;;;;17.12;40.71;100927.69;5002586;28;20034;-66
2021/10/02 10:20:50;;;;;;;9.07;4.63;;;;;;;17.49;39.79;100927.88;5001398;28;20044;-64
2021/10/02 10:23:27;;;;;;;6.78;4.05;;;;;;;17.11;38.86;100925.16;5000833;28;20053;-67
2021/10/02 10:25:54;;;;;;;5.43;4.03;;;;;;;16.68;39.49;100928.78;5018325;28;20030;-65
2021/10/02 10:28:24;;;;;;;4.53;3.75;;;;;;;16.41;39.80;100929.63;5001046;28;20037;-65
2021/10/02 10:30:51;;;;;;;12.73;5.22;;;;;;;16.04;39.77;100941.69;5003749;28;20661;-65
2021/10/02 10:33:19;;;;;;;10.05;4.35;;;;;;;16.29;39.79;100933.06;5000187;28;20052;-64
2021/10/02 10:35:48;;;;;;;6.65;2.92;;;;;;;16.29;39.67;100938.34;5000859;28;20042;-65
2021/10/02 10:38:22;;;;;;;4.78;3.30;;;;;;;17.11;37.94;100949.75;5004113;28;20124;-65
2021/10/02 10:40:48;;;;;;;6.90;3.28;;;;;;;16.72;37.97;100946.13;4996415;28;20442;-64
2021/10/02 10:43:15;;;;;;;9.93;3.47;;;;;;;17.30;36.76;100941.47;4984263;28;20176;-65
2021/10/02 10:45:40;;;;;;;4.93;3.10;;;;;;;18.08;37.91;100942.34;4999220;28;20037;-65
2021/10/02 10:48:07;;;;;;;6.95;3.35;;;;;;;17.72;37.82;100944.78;4997123;28;20521;-65
2021/10/02 10:50:37;;;;;;;8.15;3.10;;;;;;;17.24;37.76;100928.66;5000554;28;20134;-65
2021/10/02 10:53:03;;;;;;;6.97;3.55;;;;;;;17.55;37.35;100924.81;5000746;28;20034;-64
2021/10/02 10:55:29;;;;;;;7.30;2.88;;;;;;;17.02;36.05;100913.41;4997923;28;20799;-64
2021/10/02 10:57:57;;;;;;;7.68;2.65;;;;;;;17.76;36.68;100924.25;4999303;28;20633;-64
2021/10/02 11:00:32;;;;;;;5.40;2.97;;;;;;;17.37;36.71;100894.34;4996464;28;20542;-65
2021/10/02 11:03:03;;;;;;;5.15;3.15;;;;;;;16.77;37.75;100901.84;4997953;28;20284;-65
2021/10/02 11:05:34;;;;;;;5.88;3.00;;;;;;;16.49;38.08;100900.13;4996074;28;20374;-67
2021/10/02 11:08:04;;;;;;;5.18;3.58;;;;;;;16.75;38.49;100895.81;4998379;28;20049;-65
2021/10/02 11:10:42;;;;;;;5.25;3.72;;;;;;;16.72;37.44;100890.72;4998669;28;20161;-66
2021/10/02 11:13:11;;;;;;;9.80;3.42;;;;;;;15.48;39.10;100895.88;4998225;28;20108;-65
2021/10/02 11:15:37;;;;;;;8.43;3.63;;;;;;;15.58;39.45;100883.84;4999976;28;20084;-65
2021/10/02 11:18:03;;;;;;;5.00;3.20;;;;;;;15.50;40.56;100876.41;4998994;28;20599;-66
2021/10/02 11:20:37;;;;;;;6.05;3.22;;;;;;;16.07;38.64;100865.03;5090277;27;20934;-65
2021/10/02 11:23:40;;;;;;;6.50;3.22;;;;;;;15.89;39.10;100871.44;5089455;28;20044;-67
2021/10/02 11:26:25;;;;;;;6.03;2.42;;;;;;;17.05;36.66;100878.91;5088863;28;20447;-67
2021/10/02 11:29:18;;;;;;;5.63;2.95;;;;;;;17.46;35.83;100880.50;5091059;28;20575;-67
2021/10/02 11:31:45;;;;;;;5.82;2.03;;;;;;;18.12;35.17;100865.31;5077590;28;20571;-66
2021/10/02 11:34:19;;;;;;;3.92;1.50;;;;;;;18.65;34.70;100862.31;5085864;28;20042;-66
2021/10/02 11:36:47;;;;;;;4.47;2.08;;;;;;;17.84;36.17;100855.84;5094716;28;20480;-65
2021/10/02 11:39:26;;;;;;;4.25;2.20;;;;;;;16.78;36.47;100853.41;5087427;28;20086;-66
2021/10/02 11:42:06;;;;;;;7.78;2.47;;;;;;;16.18;37.64;100857.28;5088454;28;20039;-66
2021/10/02 11:44:32;;;;;;;3.85;2.33;;;;;;;16.42;37.31;100862.75;5086135;28;20093;-67
2021/10/02 11:47:35;;;;;;;3.63;2.03;;;;;;;15.26;36.06;100859.44;5087183;28;20040;-67
2021/10/02 11:50:06;;;;;;;8.40;2.38;;;;;;;15.89;36.14;100855.63;5087101;28;20122;-65
2021/10/02 11:52:32;;;;;;;4.32;1.83;;;;;;;16.07;35.89;100843.09;5087395;28;20027;-65
2021/10/02 11:55:33;;;;;;;4.90;1.27;;;;;;;16.82;35.01;100849.59;5084602;28;20588;-66
2021/10/02 11:58:11;;;;;;;6.10;2.17;;;;;;;16.46;35.10;100844.06;5087796;28;20547;-67
2021/10/02 12:00:45;;;;;;;2.95;1.35;;;;;;;15.90;34.68;100852.00;5086638;28;20036;-67
2021/10/02 12:03:24;;;;;;;4.03;1.00;;;;;;;16.57;34.44;100849.50;5085130;28;20062;-66
2021/10/02 12:05:51;;;;;;;2.25;0.98;;;;;;;17.06;34.64;100843.59;5084654;28;20040;-66
2021/10/02 12:08:17;;;;;;;6.93;1.65;;;;;;;17.53;33.74;100844.78;5087424;28;20038;-67
2021/10/02 12:10:55;;;;;;;3.10;1.05;;;;;;;18.33;31.27;100835.63;5086876;28;20148;-65
2021/10/02 12:13:23;;;;;;;3.20;0.88;;;;;;;17.60;33.33;100848.72;5086819;28;20540;-67
2021/10/02 12:15:56;;;;;;;5.70;1.20;;;;;;;17.13;33.45;100844.03;5087828;28;20117;-67
2021/10/02 12:18:21;;;;;;;3.28;1.05;;;;;;;17.36;32.26;100839.81;5085187;28;20133;-65
2021/10/02 12:20:47;;;;;;;2.25;1.00;;;;;;;16.27;34.57;100840.00;5088279;28;20442;-67